Time;durP1;ratioP1;P1;durP2;ratioP2;P2;SDS_P1;SDS_P2;PMS_P1;PMS_P2;Temp;Humidity;BMP_temperature;BMP_pressure;BME280_temperature;BME280_humidity;BME280_pressure;Samples;Min_cycle;Max_cycle;Signal;HPM_P1;HPM_P2
2021/06/14 00:01:13;;;;;;;0.20;0.20;;;;;;;15.63;83.82;99181.09;6174049;23;20108;-77
2021/06/14 00:03:39;;;;;;;0.20;0.20;;;;;;;15.61;84.00;99182.31;6150969;23;20092;-77
2021/06/14 00:06:05;;;;;;;0.20;0.20;;;;;;;15.59;84.04;99190.72;6148655;23;20056;-77
2021/06/14 00:08:31;;;;;;;0.20;0.20;;;;;;;15.59;83.87;99190.72;6150559;23;20443;-78
2021/06/14 00:10:59;;;;;;;0.20;0.20;;;;;;;15.41;84.58;99209.38;6151188;23;20025;-78
2021/06/14 00:13:27;;;;;;;0.20;0.20;;;;;;;15.52;83.32;99200.69;6124940;23;20248;-79
2021/06/14 00:15:53;;;;;;;0.20;0.20;;;;;;;15.50;83.88;99210.09;6150438;23;20026;-78
2021/06/14 00:18:20;;;;;;;0.20;0.20;;;;;;;15.47;83.71;99216.78;6150221;23;20087;-80
2021/06/14 00:20:53;;;;;;;0.20;0.20;;;;;;;15.38;84.14;99215.22;6148051;23;20543;-78
2021/06/14 00:23:21;;;;;;;0.20;0.20;;;;;;;15.39;83.94;99222.34;6151630;23;20100;-78
2021/06/14 00:25:47;;;;;;;0.20;0.20;;;;;;;15.35;84.25;99215.59;6150131;23;20030;-78
2021/06/14 00:28:17;;;;;;;0.20;0.20;;;;;;;15.26;84.78;99220.31;6153817;23;20116;-77
2021/06/14 00:30:46;;;;;;;0.20;0.20;;;;;;;15.23;84.76;99222.59;6153191;23;20348;-79
2021/06/14 00:33:13;;;;;;;0.20;0.20;;;;;;;15.29;84.45;99221.84;6153576;23;20065;-80
2021/06/14 00:35:41;;;;;;;0.20;0.20;;;;;;;15.23;84.80;99228.03;6151788;23;20080;-78
2021/06/14 00:38:08;;;;;;;0.20;0.20;;;;;;;15.12;85.43;99232.94;6149590;23;20100;-77
2021/06/14 00:40:34;;;;;;;0.20;0.20;;;;;;;15.10;85.71;99235.03;6150721;23;20025;-77
2021/06/14 00:43:00;;;;;;;0.30;0.30;;;;;;;15.10;85.94;99226.84;6148631;23;20072;-78
2021/06/14 00:45:30;;;;;;;0.30;0.30;;;;;;;15.08;85.69;99228.06;6148967;23;20029;-78
2021/06/14 00:47:56;;;;;;;0.20;0.20;;;;;;;14.99;86.48;99231.91;6149113;23;20409;-78
2021/06/14 00:50:35;;;;;;;0.20;0.20;;;;;;;14.92;86.47;99240.88;6126451;23;20022;-79
2021/06/14 00:53:01;;;;;;;0.28;0.28;;;;;;;14.96;86.22;99230.44;6152403;23;20062;-79
2021/06/14 00:55:27;;;;;;;0.20;0.20;;;;;;;14.96;86.28;99227.72;6151059;23;20440;-78
2021/06/14 00:57:53;;;;;;;0.20;0.20;;;;;;;14.92;86.57;99227.25;6128895;23;20096;-77
2021/06/14 01:00:21;;;;;;;0.20;0.20;;;;;;;14.87;86.62;99228.84;6158195;23;20025;-77
2021/06/14 01:02:54;;;;;;;0.50;0.30;;;;;;;14.89;86.63;99221.34;6133719;23;20017;-77
2021/06/14 01:05:22;;;;;;;0.20;0.20;;;;;;;14.82;86.90;99225.84;6156700;23;20026;-79
2021/06/14 01:07:48;;;;;;;0.28;0.28;;;;;;;14.85;86.46;99225.47;6153429;23;20025;-77
2021/06/14 01:10:14;;;;;;;0.30;0.30;;;;;;;14.95;86.08;99231.44;6175329;23;20461;-78
2021/06/14 01:13:19;;;;;;;0.40;0.30;;;;;;;14.85;86.57;99230.94;6149825;23;20017;-78
2021/06/14 01:15:47;;;;;;;0.40;0.40;;;;;;;14.87;86.51;99223.41;6128225;23;20053;-78
2021/06/14 01:18:14;;;;;;;0.32;0.32;;;;;;;14.98;85.75;99231.06;6151482;23;20037;-79
2021/06/14 01:21:04;;;;;;;0.20;0.20;;;;;;;15.06;85.42;99233.69;6151262;23;20033;-77
2021/06/14 01:24:08;;;;;;;0.30;0.30;;;;;;;14.99;85.82;99238.22;6126290;23;20017;-77
2021/06/14 01:26:49;;;;;;;0.40;0.40;;;;;;;14.95;86.08;99237.75;6128237;23;20124;-79
2021/06/14 01:29:17;;;;;;;0.30;0.30;;;;;;;15.01;85.79;99240.75;6150411;23;20052;-78
2021/06/14 01:31:44;;;;;;;0.30;0.30;;;;;;;15.00;85.59;99239.91;6150321;23;20021;-78
2021/06/14 01:34:12;;;;;;;0.30;0.30;;;;;;;15.03;85.52;99234.09;6101399;23;20021;-79
2021/06/14 01:36:38;;;;;;;0.40;0.40;;;;;;;15.11;85.19;99239.41;6125452;23;20017;-77
2021/06/14 01:39:07;;;;;;;0.30;0.30;;;;;;;15.10;85.48;99251.34;6126327;23;20017;-81
2021/06/14 01:41:37;;;;;;;0.30;0.30;;;;;;;15.07;85.41;99240.84;6125226;23;20109;-80
2021/06/14 01:44:07;;;;;;;0.50;0.32;;;;;;;15.11;85.26;99242.16;6125981;23;20018;-78
2021/06/14 01:46:38;;;;;;;0.30;0.30;;;;;;;15.16;85.16;99233.41;6149861;23;20547;-79
2021/06/14 01:49:06;;;;;;;0.40;0.40;;;;;;;15.18;85.02;99237.63;6150496;23;20022;-78
2021/06/14 01:51:33;;;;;;;0.40;0.40;;;;;;;15.17;85.03;99240.53;6150569;23;20025;-78
2021/06/14 01:54:03;;;;;;;0.40;0.40;;;;;;;15.19;84.95;99243.91;6149928;23;20495;-80
2021/06/14 01:56:42;;;;;;;0.30;0.30;;;;;;;15.20;84.92;99251.88;6126114;23;20137;-77
2021/06/14 01:59:19;;;;;;;0.40;0.40;;;;;;;15.24;84.80;99252.34;6125863;23;20128;-78
2021/06/14 02:01:49;;;;;;;0.30;0.30;;;;;;;15.31;84.47;99263.31;6174231;23;20558;-78
2021/06/14 02:04:17;;;;;;;0.30;0.30;;;;;;;15.33;84.42;99261.25;6125782;23;20045;-79
2021/06/14 02:06:49;;;;;;;0.77;0.40;;;;;;;15.40;84.38;99267.63;6126134;23;20467;-78
2021/06/14 02:09:21;;;;;;;1.63;0.50;;;;;;;15.47;84.00;99257.66;6078699;23;20045;-79
2021/06/14 02:11:51;;;;;;;1.42;0.60;;;;;;;15.52;83.94;99270.69;6149845;23;20026;-78
2021/06/14 02:14:19;;;;;;;0.40;0.30;;;;;;;15.56;83.66;99277.44;6151142;23;20021;-78
2021/06/14 02:16:46;;;;;;;0.30;0.30;;;;;;;15.58;83.58;99276.22;6125055;23;20022;-78
2021/06/14 02:19:13;;;;;;;1.05;0.50;;;;;;;15.62;83.72;99282.97;6153496;23;20021;-78
2021/06/14 02:21:44;;;;;;;0.30;0.30;;;;;;;15.67;83.45;99294.16;6151230;23;20022;-78
2021/06/14 02:24:12;;;;;;;0.30;0.30;;;;;;;15.76;83.18;99283.13;6154125;23;20017;-79
2021/06/14 02:26:38;;;;;;;0.30;0.30;;;;;;;15.87;82.22;99285.38;6151758;23;20026;-78
2021/06/14 02:29:05;;;;;;;0.30;0.30;;;;;;;15.97;82.00;99290.47;6153432;23;20309;-78
2021/06/14 02:31:33;;;;;;;0.20;0.20;;;;;;;16.07;81.79;99297.28;6150681;23;20112;-77
2021/06/14 02:34:02;;;;;;;0.30;0.30;;;;;;;16.13;82.10;99299.25;6124548;23;20341;-78
2021/06/14 02:36:28;;;;;;;0.20;0.20;;;;;;;16.21;81.65;99303.72;6125030;23;20073;-78
2021/06/14 02:38:56;;;;;;;0.30;0.30;;;;;;;16.31;81.10;99303.41;6149276;23;20077;-78
2021/06/14 02:41:22;;;;;;;0.28;0.28;;;;;;;16.42;80.49;99308.31;6149317;23;20025;-78
2021/06/14 02:43:50;;;;;;;0.20;0.20;;;;;;;16.51;80.76;99309.84;6150593;23;20243;-78
2021/06/14 02:46:17;;;;;;;0.22;0.22;;;;;;;16.61;80.11;99315.78;6150981;23;20372;-77
2021/06/14 02:48:47;;;;;;;0.30;0.30;;;;;;;16.68;79.70;99325.94;6151066;23;20064;-77
2021/06/14 02:51:14;;;;;;;0.30;0.30;;;;;;;16.80;78.74;99330.66;6149323;23;20045;-80
2021/06/14 02:53:42;;;;;;;0.20;0.20;;;;;;;16.91;78.21;99329.25;6125569;23;20021;-77
2021/06/14 02:56:12;;;;;;;0.20;0.20;;;;;;;17.08;76.80;99332.53;6148959;23;20421;-79
2021/06/14 02:58:40;;;;;;;0.22;0.22;;;;;;;17.27;75.91;99330.94;6151178;23;20097;-80
2021/06/14 03:01:09;;;;;;;0.20;0.20;;;;;;;17.47;75.83;99337.34;6125881;23;20364;-80
2021/06/14 03:03:40;;;;;;;0.20;0.20;;;;;;;17.66;73.90;99332.16;6125473;23;20159;-78
2021/06/14 03:06:08;;;;;;;0.20;0.20;;;;;;;17.88;73.08;99339.22;6149492;23;20299;-78
2021/06/14 03:08:37;;;;;;;0.45;0.30;;;;;;;18.05;73.80;99345.97;6149935;23;20475;-76
2021/06/14 03:11:03;;;;;;;0.20;0.20;;;;;;;18.12;72.58;99345.16;6149595;23;20025;-77
2021/06/14 03:13:30;;;;;;;0.20;0.20;;;;;;;18.32;72.53;99351.50;6149762;23;20025;-79
2021/06/14 03:15:56;;;;;;;0.20;0.20;;;;;;;18.46;72.26;99346.88;6149481;23;20036;-78
2021/06/14 03:18:24;;;;;;;0.20;0.20;;;;;;;18.63;71.62;99366.47;6125189;23;20104;-79
2021/06/14 03:20:54;;;;;;;0.30;0.30;;;;;;;18.77;70.93;99358.06;6149135;23;20025;-77
2021/06/14 03:23:21;;;;;;;0.45;0.30;;;;;;;18.98;69.31;99357.00;6151335;23;20022;-78
2021/06/14 03:25:47;;;;;;;0.20;0.20;;;;;;;19.13;69.80;99353.19;6151056;23;20099;-78
2021/06/14 03:28:15;;;;;;;0.20;0.20;;;;;;;19.24;68.74;99349.78;6151429;23;20021;-79
2021/06/14 03:30:42;;;;;;;0.20;0.20;;;;;;;19.34;67.64;99352.06;6149412;23;20029;-80
2021/06/14 03:33:09;;;;;;;0.70;0.20;;;;;;;19.47;67.72;99361.09;6150632;23;20041;-79
2021/06/14 03:35:36;;;;;;;0.35;0.30;;;;;;;19.52;67.03;99363.19;6148883;23;20079;-78
2021/06/14 03:38:02;;;;;;;0.20;0.20;;;;;;;19.80;66.38;99364.78;6149631;23;20392;-79
2021/06/14 03:40:28;;;;;;;0.30;0.30;;;;;;;19.95;65.63;99363.44;6152291;23;20028;-77
2021/06/14 03:43:02;;;;;;;0.30;0.30;;;;;;;20.09;65.23;99374.38;6126560;23;20021;-80
2021/06/14 03:45:28;;;;;;;;;;;;;;;20.33;65.13;99365.34;6154556;23;20022;-82
2021/06/14 03:47:55;;;;;;;0.20;0.20;;;;;;;20.53;64.36;99369.88;6153280;23;19969;-79
2021/06/14 03:50:21;;;;;;;0.20;0.20;;;;;;;20.68;63.71;99373.97;6151932;23;20021;-79
2021/06/14 03:52:47;;;;;;;0.20;0.20;;;;;;;20.88;62.78;99362.81;6151385;23;20478;-78
2021/06/14 03:55:13;;;;;;;0.30;0.30;;;;;;;20.94;62.48;99370.16;6151736;23;20104;-79
2021/06/14 03:57:39;;;;;;;0.30;0.30;;;;;;;21.11;61.77;99373.16;6151560;23;20023;-78
2021/06/14 04:00:08;;;;;;;0.30;0.30;;;;;;;21.33;61.81;99376.34;6151507;23;20031;-79
2021/06/14 04:02:40;;;;;;;0.30;0.30;;;;;;;21.60;60.80;99365.03;6151902;23;20492;-81
2021/06/14 04:05:07;;;;;;;0.20;0.20;;;;;;;21.87;60.84;99377.41;6149652;23;20100;-78
2021/06/14 04:07:51;;;;;;;0.30;0.30;;;;;;;22.08;60.35;99370.56;6151579;23;20101;-77
2021/06/14 04:10:17;;;;;;;0.30;0.30;;;;;;;22.24;59.77;99371.88;6151546;23;20072;-78
2021/06/14 04:12:43;;;;;;;0.30;0.30;;;;;;;22.38;59.27;99373.34;6153998;23;20096;-80
2021/06/14 04:15:09;;;;;;;0.30;0.30;;;;;;;22.48;59.70;99380.19;6152810;23;20097;-78
2021/06/14 04:17:35;;;;;;;0.30;0.30;;;;;;;22.73;58.75;99380.84;6154567;23;20014;-77
2021/06/14 04:20:05;;;;;;;0.30;0.30;;;;;;;23.07;58.66;99382.00;6153550;23;20022;-78
2021/06/14 04:22:32;;;;;;;0.30;0.30;;;;;;;23.10;58.28;99383.41;6152107;23;20069;-80
2021/06/14 04:24:58;;;;;;;0.95;0.50;;;;;;;23.35;57.39;99386.78;6153776;23;20025;-78
2021/06/14 04:27:24;;;;;;;0.30;0.30;;;;;;;23.62;56.64;99391.78;6153524;23;20021;-79
2021/06/14 04:29:50;;;;;;;0.30;0.30;;;;;;;23.68;55.88;99390.84;6153538;23;20021;-78
2021/06/14 04:32:16;;;;;;;0.30;0.30;;;;;;;23.85;55.69;99392.84;6152597;23;20017;-78
2021/06/14 04:34:42;;;;;;;0.30;0.30;;;;;;;23.98;55.38;99387.03;6151860;23;20021;-79
2021/06/14 04:37:08;;;;;;;0.40;0.40;;;;;;;24.16;55.66;99394.28;6126823;23;20018;-78
2021/06/14 04:39:35;;;;;;;0.40;0.40;;;;;;;24.52;53.90;99406.91;6151721;23;20031;-76
2021/06/14 04:42:01;;;;;;;0.35;0.35;;;;;;;24.69;54.25;99401.41;6153053;23;20017;-79
2021/06/14 04:44:26;;;;;;;0.40;0.40;;;;;;;24.93;52.67;99404.84;6152373;23;20028;-76
2021/06/14 04:46:52;;;;;;;0.40;0.40;;;;;;;25.11;52.94;99410.16;6155188;23;20463;-78
2021/06/14 04:49:18;;;;;;;0.40;0.40;;;;;;;25.36;51.80;99406.09;6152135;23;20013;-78
2021/06/14 04:51:44;;;;;;;0.40;0.40;;;;;;;25.62;52.10;99408.13;6153547;23;20032;-81
2021/06/14 04:54:10;;;;;;;0.40;0.40;;;;;;;25.73;50.80;99411.88;6151264;23;20017;-80
2021/06/14 04:56:36;;;;;;;0.75;0.75;;;;;;;25.96;49.84;99402.50;6152216;23;20025;-80
2021/06/14 04:59:02;;;;;;;1.73;0.95;;;;;;;26.14;49.54;99410.53;6127635;23;20380;-80
2021/06/14 05:01:28;;;;;;;0.50;0.50;;;;;;;26.41;49.70;99407.75;6128209;23;20081;-82
2021/06/14 05:03:56;;;;;;;0.50;0.50;;;;;;;26.62;49.07;99400.53;6128378;23;20029;-80
2021/06/14 05:06:23;;;;;;;0.50;0.50;;;;;;;26.80;48.34;99401.22;6126749;23;20087;-81
2021/06/14 05:08:49;;;;;;;0.50;0.50;;;;;;;27.23;47.07;99410.47;6151405;23;20017;-80
2021/06/14 05:11:15;;;;;;;0.50;0.50;;;;;;;27.35;47.11;99419.44;6157212;23;20096;-81
2021/06/14 05:13:41;;;;;;;0.45;0.45;;;;;;;27.32;47.18;99418.06;6156292;23;20048;-80
2021/06/14 05:16:07;;;;;;;0.52;0.52;;;;;;;27.57;46.96;99427.63;6153797;23;20025;-80
2021/06/14 05:18:33;;;;;;;0.52;0.52;;;;;;;27.67;45.44;99432.44;6156328;23;20444;-80
2021/06/14 05:21:00;;;;;;;0.50;0.50;;;;;;;27.95;44.59;99437.63;6178873;23;20456;-81
2021/06/14 05:23:26;;;;;;;0.65;0.52;;;;;;;28.23;44.43;99432.72;6130942;23;20040;-79
2021/06/14 05:25:51;;;;;;;0.50;0.50;;;;;;;28.50;44.67;99430.59;6155697;23;20112;-81
2021/06/14 05:28:17;;;;;;;0.50;0.50;;;;;;;28.01;44.64;99432.91;6155480;23;20285;-79
2021/06/14 05:30:43;;;;;;;0.60;0.60;;;;;;;28.12;44.58;99435.47;6156183;23;20364;-85
2021/06/14 05:33:09;;;;;;;0.50;0.50;;;;;;;28.81;44.78;99436.22;6136493;23;20017;-80
2021/06/14 05:35:35;;;;;;;0.50;0.50;;;;;;;29.24;42.94;99442.41;6125019;23;20030;-82
2021/06/14 05:38:01;;;;;;;0.30;0.30;;;;;;;28.38;44.16;99437.53;6128002;23;20074;-81
2021/06/14 05:40:28;;;;;;;0.60;0.60;;;;;;;27.86;44.57;99442.00;6131012;23;20022;-80
2021/06/14 05:42:54;;;;;;;0.60;0.60;;;;;;;28.15;44.70;99450.75;6129409;23;20022;-82
2021/06/14 05:45:21;;;;;;;0.50;0.50;;;;;;;28.64;43.00;99446.78;6103478;23;20022;-82
2021/06/14 05:47:47;;;;;;;0.40;0.40;;;;;;;27.95;44.50;99450.69;6120999;23;20017;-79
2021/06/14 05:50:13;;;;;;;0.70;0.70;;;;;;;28.40;44.16;99444.47;6123239;23;20037;-80
2021/06/14 05:52:39;;;;;;;0.63;0.63;;;;;;;27.83;45.34;99456.47;6121564;23;20176;-80
2021/06/14 05:55:06;;;;;;;0.80;0.80;;;;;;;28.09;43.88;99458.25;6123122;23;20484;-82
2021/06/14 05:57:32;;;;;;;0.70;0.70;;;;;;;28.34;45.01;99459.47;6122888;23;20096;-82
2021/06/14 05:59:58;;;;;;;0.70;0.70;;;;;;;27.81;45.52;99450.31;6148498;23;20324;-83
2021/06/14 06:02:30;;;;;;;0.80;0.80;;;;;;;28.04;45.93;99461.00;6147251;23;20025;-78
2021/06/14 06:05:07;;;;;;;0.80;0.80;;;;;;;27.27;48.18;99467.13;6123648;23;20029;-81
2021/06/14 06:07:37;;;;;;;0.70;0.70;;;;;;;27.45;48.03;99461.16;6128089;23;20021;-78
2021/06/14 06:10:07;;;;;;;0.80;0.80;;;;;;;27.20;49.00;99467.34;6125714;23;20392;-80
2021/06/14 06:12:34;;;;;;;0.80;0.80;;;;;;;27.08;49.16;99459.19;6099125;23;20351;-82
2021/06/14 06:15:01;;;;;;;0.90;0.90;;;;;;;27.01;49.14;99455.78;6149428;23;20655;-80
2021/06/14 06:17:31;;;;;;;0.80;0.80;;;;;;;27.61;47.40;99468.53;6120307;23;20135;-81
2021/06/14 06:20:08;;;;;;;0.80;0.80;;;;;;;28.60;45.67;99474.31;6098666;23;20275;-81
2021/06/14 06:22:35;;;;;;;0.90;0.90;;;;;;;27.87;46.13;99471.47;6096022;23;20025;-81
2021/06/14 06:25:06;;;;;;;0.80;0.80;;;;;;;28.84;45.01;99474.63;6073673;23;20309;-80
2021/06/14 06:27:36;;;;;;;0.90;0.90;;;;;;;29.31;43.33;99473.59;6124122;23;20038;-81
2021/06/14 06:30:04;;;;;;;0.80;0.80;;;;;;;29.44;43.34;99481.38;6120668;23;20360;-80
2021/06/14 06:32:31;;;;;;;0.88;0.88;;;;;;;28.86;44.37;99474.38;6121443;23;20096;-82
2021/06/14 06:34:57;;;;;;;0.90;0.90;;;;;;;29.87;42.46;99479.09;6123270;23;20048;-82
2021/06/14 06:37:26;;;;;;;0.80;0.80;;;;;;;29.77;42.25;99481.94;6108939;23;20090;-83
2021/06/14 06:39:55;;;;;;;0.80;0.80;;;;;;;30.30;41.44;99485.13;6124987;23;20026;-82
2021/06/14 06:42:23;;;;;;;0.80;0.80;;;;;;;30.39;40.87;99489.00;6129776;23;20025;-82
2021/06/14 06:44:49;;;;;;;0.80;0.80;;;;;;;30.58;41.00;99494.75;6110448;23;20014;-79
2021/06/14 06:47:15;;;;;;;0.90;0.90;;;;;;;30.48;40.83;99501.22;6127984;23;20477;-80
2021/06/14 06:49:41;;;;;;;0.82;0.82;;;;;;;29.84;41.25;99488.03;6080905;23;20022;-83
2021/06/14 06:52:08;;;;;;;0.90;0.90;;;;;;;31.19;39.14;99486.03;6125491;23;20025;-79
2021/06/14 06:54:35;;;;;;;0.90;0.90;;;;;;;32.05;38.49;99493.91;6076086;23;20033;-82
2021/06/14 06:57:03;;;;;;;0.90;0.90;;;;;;;32.53;37.05;99486.34;6100190;23;20029;-84
2021/06/14 06:59:31;;;;;;;0.90;0.90;;;;;;;33.30;36.02;99497.25;6100955;23;20456;-80
2021/06/14 07:01:57;;;;;;;0.85;0.85;;;;;;;32.76;36.68;99509.81;6128086;23;20081;-81
2021/06/14 07:04:29;;;;;;;0.90;0.90;;;;;;;32.68;35.69;99504.88;6098093;23;20065;-82
2021/06/14 07:06:55;;;;;;;0.80;0.80;;;;;;;33.31;33.18;99512.94;6120155;23;20045;-79
2021/06/14 07:09:23;;;;;;;0.90;0.90;;;;;;;33.60;33.14;99506.28;6122807;23;20018;-80
2021/06/14 07:11:56;;;;;;;0.90;0.90;;;;;;;34.08;32.55;99508.81;6120988;23;20022;-81
2021/06/14 07:14:29;;;;;;;0.80;0.80;;;;;;;33.90;33.49;99518.09;6122136;23;20021;-83
2021/06/14 07:16:55;;;;;;;1.00;1.00;;;;;;;34.47;32.46;99515.88;6123859;23;20030;-80
2021/06/14 07:19:22;;;;;;;0.90;0.90;;;;;;;34.54;32.26;99517.16;6123803;23;20021;-83
2021/06/14 07:21:48;;;;;;;0.90;0.90;;;;;;;32.31;34.98;99506.47;6102629;23;20021;-83
2021/06/14 07:24:14;;;;;;;1.08;1.08;;;;;;;32.74;34.46;99514.91;6127690;23;20017;-82
2021/06/14 07:26:40;;;;;;;1.00;1.00;;;;;;;33.74;33.42;99512.78;6102353;23;20338;-83
2021/06/14 07:29:06;;;;;;;1.00;1.00;;;;;;;32.61;34.71;99515.63;6125164;23;20025;-82
2021/06/14 07:31:35;;;;;;;1.02;1.02;;;;;;;33.62;33.29;99512.44;6122001;23;20353;-83
2021/06/14 07:34:02;;;;;;;1.00;1.00;;;;;;;32.39;33.57;99513.34;6099834;23;20018;-82
2021/06/14 07:36:30;;;;;;;1.42;1.33;;;;;;;33.38;32.37;99515.34;6121571;23;20448;-81
2021/06/14 07:38:56;;;;;;;1.00;1.00;;;;;;;31.81;34.95;99513.41;6098475;23;20018;-81
2021/06/14 07:41:23;;;;;;;1.10;1.10;;;;;;;33.43;32.95;99526.47;6121779;23;20049;-80
2021/06/14 07:43:52;;;;;;;1.00;1.00;;;;;;;32.58;33.50;99521.81;6122608;23;20025;-83
2021/06/14 07:46:19;;;;;;;1.05;1.05;;;;;;;32.64;33.92;99520.63;6099471;23;20021;-81
2021/06/14 07:48:45;;;;;;;1.00;1.00;;;;;;;32.51;34.20;99525.00;6122734;23;20049;-81
2021/06/14 07:51:11;;;;;;;1.10;1.10;;;;;;;32.65;34.21;99525.09;6099140;23;20485;-82
2021/06/14 07:53:38;;;;;;;1.20;1.20;;;;;;;32.48;34.53;99524.78;6099990;23;20022;-79
2021/06/14 07:56:06;;;;;;;1.10;1.10;;;;;;;32.65;34.39;99527.88;6125332;23;20006;-82
2021/06/14 07:58:32;;;;;;;1.15;1.15;;;;;;;33.08;33.78;99527.88;6127631;23;20444;-82
2021/06/14 08:01:00;;;;;;;1.10;1.10;;;;;;;34.57;31.85;99532.53;6126512;23;20026;-82
2021/06/14 08:03:28;;;;;;;1.25;1.25;;;;;;;33.30;33.46;99528.06;6102246;23;20018;-81
2021/06/14 08:05:56;;;;;;;1.10;1.10;;;;;;;34.57;32.38;99526.94;6079613;23;20049;-85
2021/06/14 08:08:25;;;;;;;1.10;1.10;;;;;;;35.32;31.58;99530.28;6105595;23;20491;-82
2021/06/14 08:10:53;;;;;;;1.20;1.20;;;;;;;36.06;30.21;99527.88;6076662;23;20018;-84
2021/06/14 08:13:20;;;;;;;1.10;1.10;;;;;;;34.66;31.77;99539.06;6081038;23;20053;-84
2021/06/14 08:15:46;;;;;;;1.20;1.20;;;;;;;34.48;32.66;99534.38;6122779;23;20025;-82
2021/06/14 08:18:28;;;;;;;1.10;1.10;;;;;;;33.64;32.98;99541.03;6125140;23;20017;-83
2021/06/14 08:26:21;;;;;;;1.10;1.10;;;;;;;35.85;30.18;99544.44;6125278;23;20030;-82
2021/06/14 08:28:47;;;;;;;1.10;1.10;;;;;;;36.42;29.81;99535.25;6099750;23;20069;-79
2021/06/14 08:31:13;;;;;;;1.10;1.10;;;;;;;35.61;30.50;99539.13;6124238;23;20105;-80
2021/06/14 08:33:39;;;;;;;1.10;1.10;;;;;;;34.86;31.52;99542.59;6140908;23;20014;-83
2021/06/14 08:36:06;;;;;;;1.17;1.17;;;;;;;35.65;30.32;99537.38;6117290;23;20082;-83
2021/06/14 08:38:32;;;;;;;1.10;1.10;;;;;;;35.60;30.27;99547.91;6140699;23;20017;-83
2021/06/14 08:40:58;;;;;;;1.20;1.20;;;;;;;36.53;29.38;99549.91;6133011;23;20057;-83
2021/06/14 08:43:38;;;;;;;1.15;1.15;;;;;;;37.59;28.22;99542.97;6104027;23;20029;-82
2021/06/14 08:46:04;;;;;;;1.20;1.20;;;;;;;36.06;29.28;99550.38;6106699;23;20029;-82
2021/06/14 08:48:31;;;;;;;1.10;1.10;;;;;;;35.39;30.30;99547.53;6130415;23;20523;-82
2021/06/14 08:50:57;;;;;;;1.10;1.10;;;;;;;37.00;29.15;99542.59;6128459;23;20144;-82
2021/06/14 08:53:23;;;;;;;1.10;1.10;;;;;;;36.54;28.92;99549.59;6127029;23;20026;-81
2021/06/14 08:55:49;;;;;;;1.10;1.10;;;;;;;36.18;29.01;99550.59;6130722;23;20030;-81
2021/06/14 08:58:15;;;;;;;1.10;1.10;;;;;;;35.98;29.92;99548.28;6124295;23;20021;-83
2021/06/14 09:00:41;;;;;;;1.10;1.10;;;;;;;36.88;28.53;99553.66;6128017;23;20104;-80
2021/06/14 09:03:09;;;;;;;1.20;1.20;;;;;;;35.09;30.51;99555.56;6126789;23;20025;-82
2021/06/14 09:05:36;;;;;;;1.00;1.00;;;;;;;34.37;30.85;99549.75;6123312;23;20036;-82
2021/06/14 09:08:14;;;;;;;1.13;1.13;;;;;;;35.48;30.21;99545.66;6145008;23;20018;-82
2021/06/14 09:10:41;;;;;;;1.10;1.10;;;;;;;36.42;28.57;99546.53;6100374;23;20065;-82
2021/06/14 09:13:14;;;;;;;1.10;1.10;;;;;;;34.89;30.44;99553.22;6101597;23;20044;-82
2021/06/14 09:15:43;;;;;;;1.10;1.10;;;;;;;35.73;29.76;99549.81;6126139;23;20080;-80
2021/06/14 09:18:17;;;;;;;1.08;1.08;;;;;;;34.36;31.39;99560.16;6122608;23;20049;-82
2021/06/14 09:21:04;;;;;;;1.10;1.10;;;;;;;34.17;32.36;99563.06;6125024;23;20026;-80
2021/06/14 09:23:50;;;;;;;1.20;1.20;;;;;;;35.54;30.63;99552.81;6125442;23;20059;-80
2021/06/14 09:26:33;;;;;;;1.10;1.10;;;;;;;36.42;29.56;99552.16;6125990;23;20025;-81
2021/06/14 09:29:10;;;;;;;1.00;1.00;;;;;;;35.26;30.57;99566.16;6128050;23;20031;-82
2021/06/14 09:32:02;;;;;;;1.00;1.00;;;;;;;35.51;29.97;99545.03;6147320;23;20022;-82
2021/06/14 09:34:42;;;;;;;1.00;1.00;;;;;;;36.15;29.93;99551.22;6079768;23;20472;-82
2021/06/14 09:37:10;;;;;;;0.13;0.13;;;;;;;35.86;29.76;99545.25;6129579;23;20041;-83
2021/06/14 09:39:47;;;;;;;0.60;0.60;;;;;;;35.15;30.83;99547.84;6105758;23;20024;-83
2021/06/14 09:42:25;;;;;;;0.52;0.52;;;;;;;34.51;31.60;99545.84;6075340;23;20030;-82
2021/06/14 09:44:53;;;;;;;1.30;1.20;;;;;;;36.14;30.18;99545.94;6122588;23;20048;-80
2021/06/14 09:47:20;;;;;;;1.10;1.10;;;;;;;36.22;29.98;99543.16;6121602;23;20021;-78
2021/06/14 09:50:01;;;;;;;0.10;0.10;;;;;;;33.93;33.02;99540.75;6124002;23;20022;-81
2021/06/14 09:52:28;;;;;;;0.10;0.10;;;;;;;33.19;33.80;99537.78;6122762;23;20029;-79
2021/06/14 09:55:08;;;;;;;1.20;1.20;;;;;;;32.24;35.88;99533.97;6123370;23;20018;-78
2021/06/14 09:57:34;;;;;;;1.20;1.20;;;;;;;32.77;34.52;99533.06;6120987;23;20030;-81
2021/06/14 10:00:10;;;;;;;0.88;0.88;;;;;;;35.12;31.98;99546.50;6123006;23;20524;-82
2021/06/14 10:02:35;;;;;;;1.00;1.00;;;;;;;36.78;29.04;99525.78;6122531;23;20025;-79
2021/06/14 10:05:12;;;;;;;0.85;0.85;;;;;;;37.36;28.58;99530.16;6122570;23;20412;-79
2021/06/14 10:07:50;;;;;;;1.00;1.00;;;;;;;36.38;29.82;99528.63;6120892;23;20052;-81
2021/06/14 10:10:25;;;;;;;0.20;0.20;;;;;;;36.70;29.45;99525.44;6123867;23;20017;-81
2021/06/14 10:12:59;;;;;;;0.10;0.10;;;;;;;35.18;30.48;99528.38;6127454;23;20017;-81
2021/06/14 10:15:39;;;;;;;0.10;0.10;;;;;;;33.81;31.87;99518.00;6127266;23;20085;-82
2021/06/14 10:18:09;;;;;;;1.00;1.00;;;;;;;34.43;31.80;99524.09;6104300;23;20022;-83
2021/06/14 10:20:39;;;;;;;0.90;0.90;;;;;;;33.69;33.08;99518.50;6128373;23;20018;-80
2021/06/14 10:23:06;;;;;;;1.05;1.05;;;;;;;32.80;33.70;99519.28;6100085;23;20402;-82
2021/06/14 10:25:37;;;;;;;1.00;1.00;;;;;;;33.68;32.51;99518.78;6127244;23;20026;-80
2021/06/14 10:28:07;;;;;;;1.00;1.00;;;;;;;33.47;32.36;99516.34;6101574;23;20022;-79
2021/06/14 10:30:36;;;;;;;1.00;1.00;;;;;;;34.79;30.79;99524.19;6125976;23;20104;-81
2021/06/14 10:33:05;;;;;;;1.00;1.00;;;;;;;34.61;31.58;99527.97;6123837;23;20053;-81
2021/06/14 10:35:31;;;;;;;0.90;0.90;;;;;;;34.38;31.57;99517.78;6121911;23;20024;-81
2021/06/14 10:38:01;;;;;;;1.00;1.00;;;;;;;33.44;32.36;99524.50;6125137;23;20542;-85
2021/06/14 10:40:27;;;;;;;1.02;1.02;;;;;;;34.42;31.27;99513.19;6121578;23;20044;-81
2021/06/14 10:42:59;;;;;;;1.00;1.00;;;;;;;33.96;30.28;99511.25;6076554;23;20030;-81
2021/06/14 10:45:33;;;;;;;1.00;1.00;;;;;;;34.57;29.65;99512.88;6099969;23;20095;-80
2021/06/14 10:47:59;;;;;;;1.10;1.10;;;;;;;34.27;31.25;99514.34;6151163;23;20025;-80
2021/06/14 10:50:27;;;;;;;1.10;1.10;;;;;;;33.61;31.56;99516.41;6123093;23;20022;-81
2021/06/14 10:52:55;;;;;;;1.10;1.10;;;;;;;34.81;30.02;99512.63;6121687;23;20389;-78
2021/06/14 10:55:26;;;;;;;0.75;0.75;;;;;;;34.38;30.55;99512.16;6122225;23;20090;-81
2021/06/14 10:57:52;;;;;;;1.27;1.27;;;;;;;35.83;29.02;99515.78;6122356;23;20073;-81
2021/06/14 11:00:35;;;;;;;1.10;1.10;;;;;;;36.99;27.90;99511.91;6122778;23;20370;-79
2021/06/14 11:03:03;;;;;;;1.13;1.13;;;;;;;38.12;27.01;99512.63;6121277;23;20511;-81
2021/06/14 11:05:34;;;;;;;1.02;1.02;;;;;;;38.71;26.05;99511.81;6122274;23;20026;-82
2021/06/14 11:08:20;;;;;;;1.00;1.00;;;;;;;38.43;26.61;99517.97;6119752;23;20028;-81
2021/06/14 11:11:02;;;;;;;1.00;1.00;;;;;;;38.73;26.23;99515.16;6118743;23;20013;-80
2021/06/14 11:13:31;;;;;;;1.00;1.00;;;;;;;36.76;28.07;99505.56;6120671;23;20025;-82
2021/06/14 11:15:59;;;;;;;0.90;0.90;;;;;;;35.37;29.11;99513.31;6121120;23;20922;-80
2021/06/14 11:18:30;;;;;;;0.90;0.90;;;;;;;36.44;28.26;99508.44;6123171;23;20456;-81
2021/06/14 11:21:19;;;;;;;1.10;1.10;;;;;;;36.02;28.77;99515.59;6121973;23;20017;-83
2021/06/14 11:23:49;;;;;;;0.50;0.50;;;;;;;34.85;30.37;99498.78;6121446;23;20032;-80
2021/06/14 11:26:27;;;;;;;0.98;0.98;;;;;;;35.85;29.62;99502.22;6095671;23;20491;-80
2021/06/14 11:28:54;;;;;;;1.00;1.00;;;;;;;36.04;29.10;99502.00;6119878;23;20030;-80
2021/06/14 11:31:25;;;;;;;1.10;1.10;;;;;;;36.25;29.01;99501.44;6121338;23;20029;-80
2021/06/14 11:33:54;;;;;;;1.00;1.00;;;;;;;36.76;28.00;99499.94;6121005;23;20089;-79
2021/06/14 11:36:32;;;;;;;1.10;1.10;;;;;;;35.44;29.71;99483.59;6119185;23;20025;-82
2021/06/14 11:39:00;;;;;;;1.00;1.00;;;;;;;35.50;29.69;99490.75;6119389;23;20022;-80
2021/06/14 11:41:34;;;;;;;1.00;1.00;;;;;;;34.72;30.42;99495.69;6139131;23;20018;-80
2021/06/14 11:44:18;;;;;;;0.98;0.98;;;;;;;34.85;30.53;99498.78;6118799;23;20472;-81
2021/06/14 11:46:44;;;;;;;0.95;0.95;;;;;;;35.48;28.99;99492.22;6119259;23;20026;-81
2021/06/14 11:49:10;;;;;;;1.05;1.05;;;;;;;36.45;28.79;99486.75;6120363;23;20029;-80